sensor_id;sensor_type;location;lat;lon;timestamp;temperature;humidity
51579;DHT22;47998;53.242;6.386;2023-02-28T00:00:21;2.80;99.90
51579;DHT22;47998;53.242;6.386;2023-02-28T00:02:47;2.80;99.90
51579;DHT22;47998;53.242;6.386;2023-02-28T00:05:16;2.80;99.90
51579;DHT22;47998;53.242;6.386;2023-02-28T00:07:42;2.80;99.90
51579;DHT22;47998;53.242;6.386;2023-02-28T00:10:12;2.80;99.90
51579;DHT22;47998;53.242;6.386;2023-02-28T00:12:38;2.80;99.90
51579;DHT22;47998;53.242;6.386;2023-02-28T00:15:09;2.80;99.90
51579;DHT22;47998;53.242;6.386;2023-02-28T00:17:36;2.80;99.90
51579;DHT22;47998;53.242;6.386;2023-02-28T00:20:05;2.80;99.90
51579;DHT22;47998;53.242;6.386;2023-02-28T00:22:36;2.80;99.90
51579;DHT22;47998;53.242;6.386;2023-02-28T00:25:03;2.80;99.90
51579;DHT22;47998;53.242;6.386;2023-02-28T00:27:30;2.80;99.90
51579;DHT22;47998;53.242;6.386;2023-02-28T00:29:55;2.80;99.90
51579;DHT22;47998;53.242;6.386;2023-02-28T00:32:21;2.90;99.90
51579;DHT22;47998;53.242;6.386;2023-02-28T00:34:47;2.80;99.90
51579;DHT22;47998;53.242;6.386;2023-02-28T00:37:13;2.90;99.90
51579;DHT22;47998;53.242;6.386;2023-02-28T00:39:39;2.80;99.90
51579;DHT22;47998;53.242;6.386;2023-02-28T00:42:06;2.90;99.90
51579;DHT22;47998;53.242;6.386;2023-02-28T00:44:32;2.80;99.90
51579;DHT22;47998;53.242;6.386;2023-02-28T00:46:59;2.80;99.90
51579;DHT22;47998;53.242;6.386;2023-02-28T00:49:26;2.80;99.90
51579;DHT22;47998;53.242;6.386;2023-02-28T00:51:53;2.70;99.90
51579;DHT22;47998;53.242;6.386;2023-02-28T00:54:19;2.70;99.90
51579;DHT22;47998;53.242;6.386;2023-02-28T00:56:45;2.60;99.90
51579;DHT22;47998;53.242;6.386;2023-02-28T00:59:15;2.60;99.90
51579;DHT22;47998;53.242;6.386;2023-02-28T01:01:41;2.50;99.90
51579;DHT22;47998;53.242;6.386;2023-02-28T01:04:08;2.60;99.90
51579;DHT22;47998;53.242;6.386;2023-02-28T01:06:34;2.50;99.90
51579;DHT22;47998;53.242;6.386;2023-02-28T01:09:00;2.50;99.90
51579;DHT22;47998;53.242;6.386;2023-02-28T01:11:25;2.40;99.90
51579;DHT22;47998;53.242;6.386;2023-02-28T01:13:51;2.60;99.90
51579;DHT22;47998;53.242;6.386;2023-02-28T01:16:17;2.40;99.90
51579;DHT22;47998;53.242;6.386;2023-02-28T01:18:43;2.40;99.90
51579;DHT22;47998;53.242;6.386;2023-02-28T01:21:12;2.40;99.90
51579;DHT22;47998;53.242;6.386;2023-02-28T01:23:39;2.40;99.90
51579;DHT22;47998;53.242;6.386;2023-02-28T01:26:07;2.40;99.90
51579;DHT22;47998;53.242;6.386;2023-02-28T01:28:34;2.50;99.90
51579;DHT22;47998;53.242;6.386;2023-02-28T01:31:00;2.50;99.90
51579;DHT22;47998;53.242;6.386;2023-02-28T01:33:26;2.50;99.90
51579;DHT22;47998;53.242;6.386;2023-02-28T01:36:05;2.50;99.90
51579;DHT22;47998;53.242;6.386;2023-02-28T01:38:31;2.50;99.90
51579;DHT22;47998;53.242;6.386;2023-02-28T01:40:57;2.60;99.90
51579;DHT22;47998;53.242;6.386;2023-02-28T01:43:27;2.60;99.90
51579;DHT22;47998;53.242;6.386;2023-02-28T01:45:55;2.60;99.90
51579;DHT22;47998;53.242;6.386;2023-02-28T01:48:31;2.70;99.90
51579;DHT22;47998;53.242;6.386;2023-02-28T01:51:02;2.70;99.90
51579;DHT22;47998;53.242;6.386;2023-02-28T01:53:37;2.80;99.90
51579;DHT22;47998;53.242;6.386;2023-02-28T01:56:05;2.80;99.90
51579;DHT22;47998;53.242;6.386;2023-02-28T01:58:32;2.90;99.90
51579;DHT22;47998;53.242;6.386;2023-02-28T02:00:58;3.10;99.90
51579;DHT22;47998;53.242;6.386;2023-02-28T02:03:24;2.90;99.90
51579;DHT22;47998;53.242;6.386;2023-02-28T02:05:50;3.00;99.90
51579;DHT22;47998;53.242;6.386;2023-02-28T02:08:20;3.00;99.90
51579;DHT22;47998;53.242;6.386;2023-02-28T02:13:22;3.00;99.90
51579;DHT22;47998;53.242;6.386;2023-02-28T02:23:57;2.80;99.90
51579;DHT22;47998;53.242;6.386;2023-02-28T02:43:36;2.90;99.90
51579;DHT22;47998;53.242;6.386;2023-02-28T02:46:08;2.90;99.90
51579;DHT22;47998;53.242;6.386;2023-02-28T02:48:35;2.90;99.90
51579;DHT22;47998;53.242;6.386;2023-02-28T02:51:07;2.90;99.90
51579;DHT22;47998;53.242;6.386;2023-02-28T02:53:59;3.00;99.90
51579;DHT22;47998;53.242;6.386;2023-02-28T02:56:26;3.00;99.90
51579;DHT22;47998;53.242;6.386;2023-02-28T02:58:55;3.00;99.90
51579;DHT22;47998;53.242;6.386;2023-02-28T03:01:24;3.00;99.90
51579;DHT22;47998;53.242;6.386;2023-02-28T03:03:59;3.10;99.90
51579;DHT22;47998;53.242;6.386;2023-02-28T03:06:26;3.10;99.90
51579;DHT22;47998;53.242;6.386;2023-02-28T03:08:52;3.20;99.90
51579;DHT22;47998;53.242;6.386;2023-02-28T03:11:18;3.20;99.90
51579;DHT22;47998;53.242;6.386;2023-02-28T03:19:37;3.20;99.90
51579;DHT22;47998;53.242;6.386;2023-02-28T03:30:22;3.30;99.90
51579;DHT22;47998;53.242;6.386;2023-02-28T03:33:16;3.40;99.90
51579;DHT22;47998;53.242;6.386;2023-02-28T03:35:45;3.40;99.90
51579;DHT22;47998;53.242;6.386;2023-02-28T03:38:31;3.50;99.90
51579;DHT22;47998;53.242;6.386;2023-02-28T03:41:19;3.50;99.90
51579;DHT22;47998;53.242;6.386;2023-02-28T03:43:53;3.40;99.90
51579;DHT22;47998;53.242;6.386;2023-02-28T03:46:22;3.50;99.90
51579;DHT22;47998;53.242;6.386;2023-02-28T03:49:07;3.50;99.90
51579;DHT22;47998;53.242;6.386;2023-02-28T03:51:35;3.60;99.90
51579;DHT22;47998;53.242;6.386;2023-02-28T03:54:09;3.50;99.90
51579;DHT22;47998;53.242;6.386;2023-02-28T03:56:48;3.50;99.90
51579;DHT22;47998;53.242;6.386;2023-02-28T03:59:44;3.50;99.90
51579;DHT22;47998;53.242;6.386;2023-02-28T04:02:07;3.60;99.90
51579;DHT22;47998;53.242;6.386;2023-02-28T04:04:34;3.60;99.90
51579;DHT22;47998;53.242;6.386;2023-02-28T04:07:11;3.60;99.90
51579;DHT22;47998;53.242;6.386;2023-02-28T04:09:37;3.70;99.90
51579;DHT22;47998;53.242;6.386;2023-02-28T04:12:03;3.80;99.90
51579;DHT22;47998;53.242;6.386;2023-02-28T04:14:29;3.70;99.90
51579;DHT22;47998;53.242;6.386;2023-02-28T04:16:55;3.70;99.90
51579;DHT22;47998;53.242;6.386;2023-02-28T04:19:21;3.70;99.90
51579;DHT22;47998;53.242;6.386;2023-02-28T04:21:51;3.80;99.90
51579;DHT22;47998;53.242;6.386;2023-02-28T04:24:20;3.80;99.90
51579;DHT22;47998;53.242;6.386;2023-02-28T04:26:48;3.80;99.90
51579;DHT22;47998;53.242;6.386;2023-02-28T04:29:19;3.60;99.90
51579;DHT22;47998;53.242;6.386;2023-02-28T04:31:45;3.60;99.90
51579;DHT22;47998;53.242;6.386;2023-02-28T04:34:11;3.80;99.90
51579;DHT22;47998;53.242;6.386;2023-02-28T04:36:37;3.60;99.90
51579;DHT22;47998;53.242;6.386;2023-02-28T04:39:03;3.70;99.90
51579;DHT22;47998;53.242;6.386;2023-02-28T04:41:29;3.60;99.90
51579;DHT22;47998;53.242;6.386;2023-02-28T04:43:55;3.70;99.90
51579;DHT22;47998;53.242;6.386;2023-02-28T04:46:22;3.60;99.90
51579;DHT22;47998;53.242;6.386;2023-02-28T04:48:47;3.50;99.90
51579;DHT22;47998;53.242;6.386;2023-02-28T04:51:15;3.40;99.90
51579;DHT22;47998;53.242;6.386;2023-02-28T04:53:42;3.40;99.90
51579;DHT22;47998;53.242;6.386;2023-02-28T04:56:14;3.40;99.90
51579;DHT22;47998;53.242;6.386;2023-02-28T04:58:40;3.30;99.90
51579;DHT22;47998;53.242;6.386;2023-02-28T05:03:50;3.40;99.90
51579;DHT22;47998;53.242;6.386;2023-02-28T05:06:17;3.20;99.90
51579;DHT22;47998;53.242;6.386;2023-02-28T05:08:43;3.30;99.90
51579;DHT22;47998;53.242;6.386;2023-02-28T05:11:18;3.30;99.90
51579;DHT22;47998;53.242;6.386;2023-02-28T05:13:45;3.20;99.90
51579;DHT22;47998;53.242;6.386;2023-02-28T05:16:11;3.20;99.90
51579;DHT22;47998;53.242;6.386;2023-02-28T05:18:37;3.10;99.90
51579;DHT22;47998;53.242;6.386;2023-02-28T05:21:03;3.10;99.90
51579;DHT22;47998;53.242;6.386;2023-02-28T05:23:29;3.10;99.90
51579;DHT22;47998;53.242;6.386;2023-02-28T05:25:55;3.00;99.90
51579;DHT22;47998;53.242;6.386;2023-02-28T05:28:21;2.90;99.90
51579;DHT22;47998;53.242;6.386;2023-02-28T05:30:47;3.10;99.90
51579;DHT22;47998;53.242;6.386;2023-02-28T05:33:13;2.80;99.90
51579;DHT22;47998;53.242;6.386;2023-02-28T05:35:40;2.80;99.90
51579;DHT22;47998;53.242;6.386;2023-02-28T05:38:06;2.70;99.90
51579;DHT22;47998;53.242;6.386;2023-02-28T05:40:32;2.80;99.90
51579;DHT22;47998;53.242;6.386;2023-02-28T05:42:58;2.80;99.90
51579;DHT22;47998;53.242;6.386;2023-02-28T05:45:23;2.60;99.90
51579;DHT22;47998;53.242;6.386;2023-02-28T05:47:53;2.50;99.90
51579;DHT22;47998;53.242;6.386;2023-02-28T05:50:19;2.50;99.90
51579;DHT22;47998;53.242;6.386;2023-02-28T05:52:50;2.50;99.90
51579;DHT22;47998;53.242;6.386;2023-02-28T05:55:16;2.60;99.90
51579;DHT22;47998;53.242;6.386;2023-02-28T05:57:41;2.30;99.90
51579;DHT22;47998;53.242;6.386;2023-02-28T06:00:08;2.50;99.90
51579;DHT22;47998;53.242;6.386;2023-02-28T06:02:34;2.30;99.90
51579;DHT22;47998;53.242;6.386;2023-02-28T06:05:00;2.50;99.90
51579;DHT22;47998;53.242;6.386;2023-02-28T06:07:26;2.50;99.90
51579;DHT22;47998;53.242;6.386;2023-02-28T06:09:52;2.30;99.90
51579;DHT22;47998;53.242;6.386;2023-02-28T06:12:17;2.50;99.90
51579;DHT22;47998;53.242;6.386;2023-02-28T06:14:43;2.40;99.90
51579;DHT22;47998;53.242;6.386;2023-02-28T06:17:09;2.40;99.90
51579;DHT22;47998;53.242;6.386;2023-02-28T06:19:37;2.30;99.90
51579;DHT22;47998;53.242;6.386;2023-02-28T06:22:04;2.30;99.90
51579;DHT22;47998;53.242;6.386;2023-02-28T06:24:30;2.40;99.90
51579;DHT22;47998;53.242;6.386;2023-02-28T06:26:57;2.40;99.90
51579;DHT22;47998;53.242;6.386;2023-02-28T06:29:34;2.30;99.90
51579;DHT22;47998;53.242;6.386;2023-02-28T06:32:00;2.40;99.90
51579;DHT22;47998;53.242;6.386;2023-02-28T06:34:26;2.30;99.90
51579;DHT22;47998;53.242;6.386;2023-02-28T06:36:52;2.30;99.90
51579;DHT22;47998;53.242;6.386;2023-02-28T06:39:19;2.20;99.90
51579;DHT22;47998;53.242;6.386;2023-02-28T06:41:45;2.40;99.90
51579;DHT22;47998;53.242;6.386;2023-02-28T06:44:17;2.40;99.90
51579;DHT22;47998;53.242;6.386;2023-02-28T06:46:44;2.20;99.90
51579;DHT22;47998;53.242;6.386;2023-02-28T06:49:11;2.30;99.90
51579;DHT22;47998;53.242;6.386;2023-02-28T06:51:39;2.30;99.90
51579;DHT22;47998;53.242;6.386;2023-02-28T06:54:07;2.30;99.90
51579;DHT22;47998;53.242;6.386;2023-02-28T06:56:36;2.40;99.90
51579;DHT22;47998;53.242;6.386;2023-02-28T06:59:03;2.30;99.90
51579;DHT22;47998;53.242;6.386;2023-02-28T07:01:29;2.40;99.90
51579;DHT22;47998;53.242;6.386;2023-02-28T07:03:57;2.40;99.90
51579;DHT22;47998;53.242;6.386;2023-02-28T07:06:24;2.30;99.90
51579;DHT22;47998;53.242;6.386;2023-02-28T07:08:51;2.30;99.90
51579;DHT22;47998;53.242;6.386;2023-02-28T07:11:18;2.10;99.90
51579;DHT22;47998;53.242;6.386;2023-02-28T07:13:44;2.20;99.90
51579;DHT22;47998;53.242;6.386;2023-02-28T07:16:11;2.40;99.90
51579;DHT22;47998;53.242;6.386;2023-02-28T07:18:37;2.20;99.90
51579;DHT22;47998;53.242;6.386;2023-02-28T07:21:05;2.20;99.90
51579;DHT22;47998;53.242;6.386;2023-02-28T07:23:31;2.10;99.90
51579;DHT22;47998;53.242;6.386;2023-02-28T07:25:57;2.00;99.90
51579;DHT22;47998;53.242;6.386;2023-02-28T07:28:23;2.00;99.90
51579;DHT22;47998;53.242;6.386;2023-02-28T07:30:49;2.10;99.90
51579;DHT22;47998;53.242;6.386;2023-02-28T07:33:15;2.00;99.90
51579;DHT22;47998;53.242;6.386;2023-02-28T07:35:41;2.10;99.90
51579;DHT22;47998;53.242;6.386;2023-02-28T07:38:07;1.90;99.90
51579;DHT22;47998;53.242;6.386;2023-02-28T07:40:34;2.00;99.90
51579;DHT22;47998;53.242;6.386;2023-02-28T07:43:01;1.90;99.90
51579;DHT22;47998;53.242;6.386;2023-02-28T07:45:27;1.90;99.90
51579;DHT22;47998;53.242;6.386;2023-02-28T07:47:57;2.10;99.90
51579;DHT22;47998;53.242;6.386;2023-02-28T07:50:23;2.10;99.90
51579;DHT22;47998;53.242;6.386;2023-02-28T07:52:49;2.00;99.90
51579;DHT22;47998;53.242;6.386;2023-02-28T07:55:14;1.90;99.90
51579;DHT22;47998;53.242;6.386;2023-02-28T07:57:42;1.90;99.90
51579;DHT22;47998;53.242;6.386;2023-02-28T08:00:10;2.10;99.90
51579;DHT22;47998;53.242;6.386;2023-02-28T08:02:36;2.10;99.90
51579;DHT22;47998;53.242;6.386;2023-02-28T08:05:02;2.10;99.90
51579;DHT22;47998;53.242;6.386;2023-02-28T08:07:28;2.10;99.90
51579;DHT22;47998;53.242;6.386;2023-02-28T08:09:54;2.10;99.90
51579;DHT22;47998;53.242;6.386;2023-02-28T08:12:20;2.50;99.90
51579;DHT22;47998;53.242;6.386;2023-02-28T08:14:46;2.20;99.90
51579;DHT22;47998;53.242;6.386;2023-02-28T08:17:12;2.30;99.90
51579;DHT22;47998;53.242;6.386;2023-02-28T08:19:38;2.40;99.90
51579;DHT22;47998;53.242;6.386;2023-02-28T08:22:03;2.40;99.90
51579;DHT22;47998;53.242;6.386;2023-02-28T08:24:29;2.40;99.90
51579;DHT22;47998;53.242;6.386;2023-02-28T08:26:56;2.40;99.90
51579;DHT22;47998;53.242;6.386;2023-02-28T08:29:22;2.50;99.90
51579;DHT22;47998;53.242;6.386;2023-02-28T08:31:48;2.50;99.90
51579;DHT22;47998;53.242;6.386;2023-02-28T08:34:15;2.60;99.90
51579;DHT22;47998;53.242;6.386;2023-02-28T08:36:41;2.80;99.90
51579;DHT22;47998;53.242;6.386;2023-02-28T08:39:10;3.00;99.90
51579;DHT22;47998;53.242;6.386;2023-02-28T08:41:36;3.10;99.90
51579;DHT22;47998;53.242;6.386;2023-02-28T08:44:02;3.30;99.90
51579;DHT22;47998;53.242;6.386;2023-02-28T08:46:28;3.40;99.90
51579;DHT22;47998;53.242;6.386;2023-02-28T08:48:55;3.40;99.90
51579;DHT22;47998;53.242;6.386;2023-02-28T08:51:24;3.50;99.90
51579;DHT22;47998;53.242;6.386;2023-02-28T08:54:02;3.40;99.90
51579;DHT22;47998;53.242;6.386;2023-02-28T08:56:29;3.40;99.90
51579;DHT22;47998;53.242;6.386;2023-02-28T08:58:56;3.50;99.90
51579;DHT22;47998;53.242;6.386;2023-02-28T09:01:27;3.60;99.90
51579;DHT22;47998;53.242;6.386;2023-02-28T09:03:53;3.70;99.90
51579;DHT22;47998;53.242;6.386;2023-02-28T09:06:21;3.80;99.90
51579;DHT22;47998;53.242;6.386;2023-02-28T09:08:47;3.80;99.90
51579;DHT22;47998;53.242;6.386;2023-02-28T09:11:14;4.00;99.90
51579;DHT22;47998;53.242;6.386;2023-02-28T09:13:40;4.00;99.90
51579;DHT22;47998;53.242;6.386;2023-02-28T09:16:08;4.00;99.90
51579;DHT22;47998;53.242;6.386;2023-02-28T09:18:36;4.00;99.90
51579;DHT22;47998;53.242;6.386;2023-02-28T09:21:10;4.00;99.90
51579;DHT22;47998;53.242;6.386;2023-02-28T09:23:40;4.00;99.90
51579;DHT22;47998;53.242;6.386;2023-02-28T09:26:06;4.00;99.90
51579;DHT22;47998;53.242;6.386;2023-02-28T09:28:31;4.00;99.90
51579;DHT22;47998;53.242;6.386;2023-02-28T09:30:57;4.00;99.90
51579;DHT22;47998;53.242;6.386;2023-02-28T09:33:25;4.20;99.90
51579;DHT22;47998;53.242;6.386;2023-02-28T09:35:59;4.20;99.90
51579;DHT22;47998;53.242;6.386;2023-02-28T09:38:26;4.30;99.90
51579;DHT22;47998;53.242;6.386;2023-02-28T09:41:00;4.50;99.90
51579;DHT22;47998;53.242;6.386;2023-02-28T09:43:32;4.70;99.90
51579;DHT22;47998;53.242;6.386;2023-02-28T09:46:33;4.90;99.90
51579;DHT22;47998;53.242;6.386;2023-02-28T09:49:04;5.00;99.90
51579;DHT22;47998;53.242;6.386;2023-02-28T09:51:48;5.10;99.90
51579;DHT22;47998;53.242;6.386;2023-02-28T09:54:22;5.10;99.90
51579;DHT22;47998;53.242;6.386;2023-02-28T09:59:54;5.30;99.90
51579;DHT22;47998;53.242;6.386;2023-02-28T10:05:00;5.90;99.90
51579;DHT22;47998;53.242;6.386;2023-02-28T10:10:42;6.00;99.90
51579;DHT22;47998;53.242;6.386;2023-02-28T10:13:36;6.30;99.90
51579;DHT22;47998;53.242;6.386;2023-02-28T10:16:10;6.70;99.90
51579;DHT22;47998;53.242;6.386;2023-02-28T10:18:56;6.80;99.90
51579;DHT22;47998;53.242;6.386;2023-02-28T10:21:46;6.90;99.90
51579;DHT22;47998;53.242;6.386;2023-02-28T10:27:01;7.60;99.90
51579;DHT22;47998;53.242;6.386;2023-02-28T10:29:32;7.90;99.90
51579;DHT22;47998;53.242;6.386;2023-02-28T10:32:01;8.10;99.90
51579;DHT22;47998;53.242;6.386;2023-02-28T10:34:28;8.50;99.90
51579;DHT22;47998;53.242;6.386;2023-02-28T10:36:54;8.60;99.90
51579;DHT22;47998;53.242;6.386;2023-02-28T10:42:25;8.90;99.90
51579;DHT22;47998;53.242;6.386;2023-02-28T10:45:10;8.90;99.90
51579;DHT22;47998;53.242;6.386;2023-02-28T10:47:51;8.90;99.90
51579;DHT22;47998;53.242;6.386;2023-02-28T10:53:07;8.50;99.90
51579;DHT22;47998;53.242;6.386;2023-02-28T10:55:34;8.60;99.90
51579;DHT22;47998;53.242;6.386;2023-02-28T10:58:00;8.20;99.90
51579;DHT22;47998;53.242;6.386;2023-02-28T11:00:32;8.00;99.90
51579;DHT22;47998;53.242;6.386;2023-02-28T11:02:59;7.80;99.90
51579;DHT22;47998;53.242;6.386;2023-02-28T11:05:32;8.00;99.90
51579;DHT22;47998;53.242;6.386;2023-02-28T11:08:15;8.20;99.90
51579;DHT22;47998;53.242;6.386;2023-02-28T11:10:46;8.30;99.90
51579;DHT22;47998;53.242;6.386;2023-02-28T11:13:29;8.80;99.90
51579;DHT22;47998;53.242;6.386;2023-02-28T11:15:59;8.80;99.90
51579;DHT22;47998;53.242;6.386;2023-02-28T11:18:54;8.70;99.90
51579;DHT22;47998;53.242;6.386;2023-02-28T11:21:29;9.00;99.90
51579;DHT22;47998;53.242;6.386;2023-02-28T11:24:05;9.30;99.90
51579;DHT22;47998;53.242;6.386;2023-02-28T11:26:42;9.60;99.90
51579;DHT22;47998;53.242;6.386;2023-02-28T11:29:12;9.50;99.90
51579;DHT22;47998;53.242;6.386;2023-02-28T11:31:41;9.50;99.90
51579;DHT22;47998;53.242;6.386;2023-02-28T11:34:26;9.50;99.90
51579;DHT22;47998;53.242;6.386;2023-02-28T11:36:54;9.70;99.90
51579;DHT22;47998;53.242;6.386;2023-02-28T11:39:23;10.00;99.90
51579;DHT22;47998;53.242;6.386;2023-02-28T11:47:48;9.90;99.90
51579;DHT22;47998;53.242;6.386;2023-02-28T11:53:14;10.10;99.90
51579;DHT22;47998;53.242;6.386;2023-02-28T11:55:46;9.90;99.90
51579;DHT22;47998;53.242;6.386;2023-02-28T11:58:33;9.60;99.90
51579;DHT22;47998;53.242;6.386;2023-02-28T12:04:17;9.60;99.90
51579;DHT22;47998;53.242;6.386;2023-02-28T12:07:21;9.80;99.90
51579;DHT22;47998;53.242;6.386;2023-02-28T12:12:34;9.80;99.90
51579;DHT22;47998;53.242;6.386;2023-02-28T12:26:42;9.70;99.90
51579;DHT22;47998;53.242;6.386;2023-02-28T12:32:23;9.80;99.90
51579;DHT22;47998;53.242;6.386;2023-02-28T12:35:04;10.00;99.90
51579;DHT22;47998;53.242;6.386;2023-02-28T12:37:53;10.10;99.90
51579;DHT22;47998;53.242;6.386;2023-02-28T12:40:23;10.20;99.90
51579;DHT22;47998;53.242;6.386;2023-02-28T12:43:01;10.40;99.90
51579;DHT22;47998;53.242;6.386;2023-02-28T12:45:54;10.70;99.90
51579;DHT22;47998;53.242;6.386;2023-02-28T12:48:31;10.60;99.90
51579;DHT22;47998;53.242;6.386;2023-02-28T12:51:03;11.00;99.90
51579;DHT22;47998;53.242;6.386;2023-02-28T13:07:38;10.70;99.90
51579;DHT22;47998;53.242;6.386;2023-02-28T13:10:08;10.60;99.90
51579;DHT22;47998;53.242;6.386;2023-02-28T13:12:35;10.60;99.90
51579;DHT22;47998;53.242;6.386;2023-02-28T13:15:07;11.20;99.90
51579;DHT22;47998;53.242;6.386;2023-02-28T13:17:39;11.60;99.90
51579;DHT22;47998;53.242;6.386;2023-02-28T13:20:18;11.80;99.90
51579;DHT22;47998;53.242;6.386;2023-02-28T13:22:49;11.90;99.90
51579;DHT22;47998;53.242;6.386;2023-02-28T13:27:49;12.00;99.90
51579;DHT22;47998;53.242;6.386;2023-02-28T13:33:28;10.90;99.90
51579;DHT22;47998;53.242;6.386;2023-02-28T13:38:41;10.70;99.90
51579;DHT22;47998;53.242;6.386;2023-02-28T13:46:32;12.30;99.90
51579;DHT22;47998;53.242;6.386;2023-02-28T13:52:17;13.20;99.90
51579;DHT22;47998;53.242;6.386;2023-02-28T14:03:53;14.30;99.90
51579;DHT22;47998;53.242;6.386;2023-02-28T14:08:58;14.10;99.90
51579;DHT22;47998;53.242;6.386;2023-02-28T14:11:31;13.50;99.90
51579;DHT22;47998;53.242;6.386;2023-02-28T14:13:59;13.20;99.90
51579;DHT22;47998;53.242;6.386;2023-02-28T14:16:34;13.20;99.90
51579;DHT22;47998;53.242;6.386;2023-02-28T14:19:24;13.20;99.90
51579;DHT22;47998;53.242;6.386;2023-02-28T14:32:27;13.30;99.90
51579;DHT22;47998;53.242;6.386;2023-02-28T14:35:16;13.00;99.90
51579;DHT22;47998;53.242;6.386;2023-02-28T14:37:44;12.60;99.90
51579;DHT22;47998;53.242;6.386;2023-02-28T14:40:17;12.40;99.90
51579;DHT22;47998;53.242;6.386;2023-02-28T14:42:56;12.10;99.90
51579;DHT22;47998;53.242;6.386;2023-02-28T14:45:31;12.30;99.90
51579;DHT22;47998;53.242;6.386;2023-02-28T14:47:58;12.80;99.90
51579;DHT22;47998;53.242;6.386;2023-02-28T14:50:31;13.20;99.90
51579;DHT22;47998;53.242;6.386;2023-02-28T14:52:59;13.50;99.90
51579;DHT22;47998;53.242;6.386;2023-02-28T14:55:30;13.90;99.90
51579;DHT22;47998;53.242;6.386;2023-02-28T14:58:02;14.20;99.90
51579;DHT22;47998;53.242;6.386;2023-02-28T15:00:33;13.50;99.90
51579;DHT22;47998;53.242;6.386;2023-02-28T15:03:00;12.70;99.90
51579;DHT22;47998;53.242;6.386;2023-02-28T15:05:34;12.30;99.90
51579;DHT22;47998;53.242;6.386;2023-02-28T15:08:16;12.00;99.90
51579;DHT22;47998;53.242;6.386;2023-02-28T15:11:02;12.50;99.90
51579;DHT22;47998;53.242;6.386;2023-02-28T15:13:42;12.10;99.90
51579;DHT22;47998;53.242;6.386;2023-02-28T15:16:32;11.40;99.90
51579;DHT22;47998;53.242;6.386;2023-02-28T15:19:24;11.00;99.90
51579;DHT22;47998;53.242;6.386;2023-02-28T15:21:53;11.00;99.90
51579;DHT22;47998;53.242;6.386;2023-02-28T15:27:16;11.90;99.90
51579;DHT22;47998;53.242;6.386;2023-02-28T15:29:58;11.70;99.90
51579;DHT22;47998;53.242;6.386;2023-02-28T15:32:36;12.20;99.90
51579;DHT22;47998;53.242;6.386;2023-02-28T15:35:28;12.20;99.90
51579;DHT22;47998;53.242;6.386;2023-02-28T15:38:03;11.90;99.90
51579;DHT22;47998;53.242;6.386;2023-02-28T15:40:42;11.80;99.90
51579;DHT22;47998;53.242;6.386;2023-02-28T15:43:15;11.70;99.90
51579;DHT22;47998;53.242;6.386;2023-02-28T15:46:17;11.20;99.90
51579;DHT22;47998;53.242;6.386;2023-02-28T15:48:55;10.70;99.90
51579;DHT22;47998;53.242;6.386;2023-02-28T15:51:32;10.30;99.90
51579;DHT22;47998;53.242;6.386;2023-02-28T15:54:00;10.20;99.90
51579;DHT22;47998;53.242;6.386;2023-02-28T15:59:03;9.60;99.90
51579;DHT22;47998;53.242;6.386;2023-02-28T16:01:35;9.50;99.90
51579;DHT22;47998;53.242;6.386;2023-02-28T16:04:05;9.50;99.90
51579;DHT22;47998;53.242;6.386;2023-02-28T16:06:37;9.80;99.90
51579;DHT22;47998;53.242;6.386;2023-02-28T16:09:05;9.80;99.90
51579;DHT22;47998;53.242;6.386;2023-02-28T16:11:37;10.00;99.90
51579;DHT22;47998;53.242;6.386;2023-02-28T16:14:04;10.00;99.90
51579;DHT22;47998;53.242;6.386;2023-02-28T16:16:31;9.70;99.90
51579;DHT22;47998;53.242;6.386;2023-02-28T16:18:57;9.40;99.90
51579;DHT22;47998;53.242;6.386;2023-02-28T16:21:25;9.30;99.90
51579;DHT22;47998;53.242;6.386;2023-02-28T16:23:51;9.30;99.90
51579;DHT22;47998;53.242;6.386;2023-02-28T16:26:25;9.30;99.90
51579;DHT22;47998;53.242;6.386;2023-02-28T16:28:53;9.30;99.90
51579;DHT22;47998;53.242;6.386;2023-02-28T16:31:20;9.40;99.90
51579;DHT22;47998;53.242;6.386;2023-02-28T16:33:46;9.20;99.90
51579;DHT22;47998;53.242;6.386;2023-02-28T16:36:17;8.90;99.90
51579;DHT22;47998;53.242;6.386;2023-02-28T16:38:44;8.60;99.90
51579;DHT22;47998;53.242;6.386;2023-02-28T16:41:14;8.30;99.90
51579;DHT22;47998;53.242;6.386;2023-02-28T16:43:45;8.10;99.90
51579;DHT22;47998;53.242;6.386;2023-02-28T16:46:12;8.00;99.90
51579;DHT22;47998;53.242;6.386;2023-02-28T16:48:39;7.90;99.90
51579;DHT22;47998;53.242;6.386;2023-02-28T16:51:13;7.70;99.90
51579;DHT22;47998;53.242;6.386;2023-02-28T16:53:39;7.60;99.90
51579;DHT22;47998;53.242;6.386;2023-02-28T16:56:06;7.50;99.90
51579;DHT22;47998;53.242;6.386;2023-02-28T16:58:33;7.20;99.90
51579;DHT22;47998;53.242;6.386;2023-02-28T17:01:02;7.00;99.90
51579;DHT22;47998;53.242;6.386;2023-02-28T17:03:30;6.70;99.90
51579;DHT22;47998;53.242;6.386;2023-02-28T17:05:56;6.30;99.90
51579;DHT22;47998;53.242;6.386;2023-02-28T17:08:22;5.90;99.90
51579;DHT22;47998;53.242;6.386;2023-02-28T17:10:48;5.60;99.90
51579;DHT22;47998;53.242;6.386;2023-02-28T17:13:13;5.20;99.90
51579;DHT22;47998;53.242;6.386;2023-02-28T17:15:40;5.00;99.90
51579;DHT22;47998;53.242;6.386;2023-02-28T17:18:08;4.70;99.90
51579;DHT22;47998;53.242;6.386;2023-02-28T17:20:35;4.50;99.90
51579;DHT22;47998;53.242;6.386;2023-02-28T17:23:01;4.30;99.90
51579;DHT22;47998;53.242;6.386;2023-02-28T17:25:27;4.00;99.90
51579;DHT22;47998;53.242;6.386;2023-02-28T17:27:53;3.90;99.90
51579;DHT22;47998;53.242;6.386;2023-02-28T17:30:25;3.60;99.90
51579;DHT22;47998;53.242;6.386;2023-02-28T17:32:53;3.50;99.90
51579;DHT22;47998;53.242;6.386;2023-02-28T17:35:22;3.50;99.90
51579;DHT22;47998;53.242;6.386;2023-02-28T17:37:48;3.40;99.90
51579;DHT22;47998;53.242;6.386;2023-02-28T17:40:18;3.30;99.90
51579;DHT22;47998;53.242;6.386;2023-02-28T17:42:45;3.30;99.90
51579;DHT22;47998;53.242;6.386;2023-02-28T17:45:12;3.30;99.90
51579;DHT22;47998;53.242;6.386;2023-02-28T17:47:43;3.30;99.90
51579;DHT22;47998;53.242;6.386;2023-02-28T17:50:16;3.20;99.90
51579;DHT22;47998;53.242;6.386;2023-02-28T17:52:45;3.20;99.90
51579;DHT22;47998;53.242;6.386;2023-02-28T17:55:11;3.20;99.90
51579;DHT22;47998;53.242;6.386;2023-02-28T17:57:37;3.20;99.90
51579;DHT22;47998;53.242;6.386;2023-02-28T18:00:04;3.10;99.90
51579;DHT22;47998;53.242;6.386;2023-02-28T18:02:32;3.10;99.90
51579;DHT22;47998;53.242;6.386;2023-02-28T18:04:58;3.10;99.90
51579;DHT22;47998;53.242;6.386;2023-02-28T18:07:27;3.00;99.90
51579;DHT22;47998;53.242;6.386;2023-02-28T18:09:53;3.20;99.90
51579;DHT22;47998;53.242;6.386;2023-02-28T18:12:19;3.10;99.90
51579;DHT22;47998;53.242;6.386;2023-02-28T18:14:44;3.00;99.90
51579;DHT22;47998;53.242;6.386;2023-02-28T18:17:13;3.00;99.90
51579;DHT22;47998;53.242;6.386;2023-02-28T18:19:38;2.90;99.90
51579;DHT22;47998;53.242;6.386;2023-02-28T18:22:04;2.90;99.90
51579;DHT22;47998;53.242;6.386;2023-02-28T18:24:33;3.20;99.90
51579;DHT22;47998;53.242;6.386;2023-02-28T18:26:59;2.80;99.90
51579;DHT22;47998;53.242;6.386;2023-02-28T18:29:26;2.70;99.90
51579;DHT22;47998;53.242;6.386;2023-02-28T18:31:53;2.70;99.90